Time;durP1;ratioP1;P1;durP2;ratioP2;P2;SDS_P1;SDS_P2;PMS_P1;PMS_P2;Temp;Humidity;BMP_temperature;BMP_pressure;BME280_temperature;BME280_humidity;BME280_pressure;Samples;Min_cycle;Max_cycle;Signal;HPM_P1;HPM_P2
2021/11/15 00:01:13;;;;;;;15.77;11.20;;;;;;;11.33;62.67;101280.22;4231374;28;21710;-82
2021/11/15 00:03:40;;;;;;;15.20;10.65;;;;;;;11.38;62.58;101277.34;5034278;28;20483;-82
2021/11/15 00:06:09;;;;;;;15.85;10.95;;;;;;;11.40;62.45;101277.06;5049034;28;20064;-82
2021/11/15 00:08:36;;;;;;;14.23;10.65;;;;;;;11.35;62.30;101284.38;5053876;28;20584;-82
2021/11/15 00:11:05;;;;;;;16.13;11.32;;;;;;;11.31;62.55;101280.53;5053668;28;20052;-82
2021/11/15 00:13:33;;;;;;;15.30;11.13;;;;;;;11.27;62.56;101282.25;5063973;28;20048;-82
2021/11/15 00:16:00;;;;;;;17.10;11.93;;;;;;;11.21;62.79;101291.81;5053981;28;20512;-82
2021/11/15 00:18:28;;;;;;;14.88;11.30;;;;;;;11.18;62.95;101289.63;5053928;28;20053;-82
2021/11/15 00:20:56;;;;;;;15.15;10.90;;;;;;;11.11;63.39;101294.75;5053569;28;20049;-82
2021/11/15 00:23:24;;;;;;;15.73;11.43;;;;;;;11.16;63.15;101289.09;5039635;28;20076;-82
2021/11/15 00:25:52;;;;;;;15.50;10.77;;;;;;;11.21;63.25;101291.81;5034411;28;20049;-82
2021/11/15 00:28:20;;;;;;;16.58;11.30;;;;;;;11.26;63.06;101291.75;5044712;28;20401;-82
2021/11/15 00:30:48;;;;;;;14.35;10.32;;;;;;;11.27;63.37;101285.03;5053879;28;20056;-82
2021/11/15 00:33:17;;;;;;;15.35;10.63;;;;;;;11.21;63.27;101280.66;5042264;28;20391;-82
2021/11/15 00:35:45;;;;;;;17.00;11.48;;;;;;;11.20;63.07;101284.59;5071889;28;20051;-82
2021/11/15 00:38:12;;;;;;;17.08;12.20;;;;;;;11.15;63.15;101282.69;5063943;28;20049;-82
2021/11/15 00:40:40;;;;;;;17.70;12.20;;;;;;;11.06;63.40;101278.06;5053497;28;20049;-82
2021/11/15 00:43:07;;;;;;;16.77;12.45;;;;;;;10.55;65.03;101279.50;5049996;28;20402;-82
2021/11/15 00:45:38;;;;;;;17.35;12.55;;;;;;;10.90;64.29;101281.06;5052392;28;20049;-82
2021/11/15 00:48:06;;;;;;;18.17;12.68;;;;;;;10.79;64.59;101285.06;5052609;28;20049;-82
2021/11/15 00:50:34;;;;;;;16.48;12.30;;;;;;;10.92;64.00;101292.75;5053682;28;20049;-82
2021/11/15 00:53:01;;;;;;;17.63;12.85;;;;;;;10.99;64.13;101277.63;5053908;28;20059;-82
2021/11/15 00:55:29;;;;;;;16.52;11.43;;;;;;;10.97;63.92;101287.09;5049338;28;20056;-82
2021/11/15 00:57:56;;;;;;;15.77;11.70;;;;;;;11.03;63.76;101282.28;5062140;28;20053;-82
2021/11/15 01:00:27;;;;;;;17.67;12.55;;;;;;;11.05;63.90;101276.44;5053847;28;20422;-82
2021/11/15 01:02:57;;;;;;;16.38;12.27;;;;;;;11.07;63.84;101279.75;5054070;28;20478;-81
2021/11/15 01:40:56;;;;;;;;;;;;;;;;;;;;;
2021/11/15 02:14:58;;;;;;;17.10;13.00;;;;;;;10.98;63.54;101243.31;5021343;28;20426;-82
2021/11/15 02:17:26;;;;;;;17.85;13.07;;;;;;;11.01;63.46;101244.69;5023100;28;20057;-81
2021/11/15 02:19:55;;;;;;;20.05;13.18;;;;;;;10.96;63.69;101240.84;5016179;28;20049;-82
2021/11/15 02:22:24;;;;;;;18.08;12.90;;;;;;;10.86;63.87;101240.97;5015288;28;20410;-82
2021/11/15 02:24:51;;;;;;;16.73;12.75;;;;;;;10.78;64.11;101236.03;5014673;28;20050;-82
2021/11/15 02:27:18;;;;;;;20.20;14.10;;;;;;;10.77;64.22;101237.16;5015747;28;20061;-82
2021/11/15 02:29:46;;;;;;;18.55;13.90;;;;;;;10.86;64.26;101235.41;5015347;28;20407;-81
2021/11/15 02:32:13;;;;;;;18.27;14.18;;;;;;;10.76;64.42;101238.31;5015118;28;20054;-81
2021/11/15 02:34:40;;;;;;;18.55;13.18;;;;;;;10.74;63.96;101237.78;5014107;28;20046;-82
2021/11/15 02:37:08;;;;;;;19.30;13.27;;;;;;;10.81;64.27;101231.84;5014599;28;20054;-81
2021/11/15 02:39:37;;;;;;;20.83;15.20;;;;;;;10.86;63.98;101234.56;5014853;28;20049;-81
2021/11/15 02:42:04;;;;;;;21.20;14.17;;;;;;;10.89;63.92;101240.34;5015215;28;20049;-82
2021/11/15 02:45:53;;;;;;;18.77;13.68;;;;;;;10.86;63.98;101224.25;5015935;28;20054;-82
2021/11/15 05:04:58;;;;;;;;;;;;;;;10.56;64.00;101220.69;5007851;28;20058;-82
2021/11/15 05:07:25;;;;;;;21.98;14.65;;;;;;;10.59;64.04;101221.25;5025895;28;20366;-82
2021/11/15 05:09:52;;;;;;;22.25;14.73;;;;;;;10.59;64.01;101219.28;5016189;28;20050;-82
2021/11/15 05:12:20;;;;;;;21.95;14.70;;;;;;;10.61;64.05;101217.03;5023893;28;20056;-83
2021/11/15 05:14:47;;;;;;;22.33;14.85;;;;;;;10.65;63.77;101222.84;5031384;28;20054;-82
2021/11/15 05:17:14;;;;;;;22.73;13.77;;;;;;;10.67;64.06;101217.81;5036299;28;20065;-82
2021/11/15 05:19:43;;;;;;;21.35;14.82;;;;;;;10.69;63.82;101221.13;5037050;28;20061;-83
2021/11/15 05:22:12;;;;;;;23.52;15.80;;;;;;;10.69;63.61;101221.94;5036327;28;20045;-82
2021/11/15 05:24:40;;;;;;;21.47;14.53;;;;;;;10.71;63.43;101219.69;5036375;28;20060;-82
2021/11/15 05:27:07;;;;;;;22.15;14.45;;;;;;;10.72;63.47;101220.50;5036365;28;20464;-82
2021/11/15 05:29:35;;;;;;;19.05;13.88;;;;;;;10.64;63.56;101215.59;5038253;28;20053;-83
2021/11/15 05:32:02;;;;;;;19.73;13.85;;;;;;;10.67;63.29;101217.81;5037571;28;20391;-83
2021/11/15 05:34:30;;;;;;;19.45;13.35;;;;;;;10.67;63.25;101220.59;5035522;28;20057;-82
2021/11/15 05:36:57;;;;;;;21.65;14.70;;;;;;;10.53;63.76;101215.72;5035328;28;20049;-83
2021/11/15 05:39:26;;;;;;;20.02;13.45;;;;;;;10.63;63.63;101212.00;5035593;28;20505;-82
2021/11/15 05:41:57;;;;;;;20.30;13.90;;;;;;;10.68;63.42;101211.09;5035721;28;20486;-82
2021/11/15 05:44:25;;;;;;;19.05;13.68;;;;;;;10.71;63.20;101210.50;5034588;28;20061;-82
2021/11/15 05:46:52;;;;;;;21.20;13.55;;;;;;;10.72;63.01;101209.38;5053268;28;20052;-81
2021/11/15 05:49:20;;;;;;;20.98;13.77;;;;;;;10.73;63.14;101213.81;5055671;28;20060;-82
2021/11/15 05:51:47;;;;;;;20.85;13.80;;;;;;;10.72;63.21;101215.75;5054932;28;20442;-82
2021/11/15 05:54:14;;;;;;;22.42;15.38;;;;;;;10.69;63.25;101213.59;5037144;28;20494;-82
2021/11/15 05:56:46;;;;;;;19.73;13.88;;;;;;;10.72;63.11;101218.56;5035577;28;20057;-82
2021/11/15 05:59:14;;;;;;;19.83;13.07;;;;;;;10.66;63.11;101214.16;5034833;28;20049;-82
2021/11/15 06:01:43;;;;;;;18.88;13.10;;;;;;;10.69;63.24;101212.75;5033630;28;20485;-83
2021/11/15 06:04:10;;;;;;;20.53;12.67;;;;;;;10.72;63.05;101201.00;5035624;28;20064;-83
2021/11/15 06:06:37;;;;;;;19.10;13.32;;;;;;;10.69;62.97;101207.19;5035113;28;20072;-83
2021/11/15 06:09:05;;;;;;;18.48;12.70;;;;;;;10.69;62.87;101213.59;5028145;28;20061;-83
2021/11/15 06:11:33;;;;;;;20.73;13.82;;;;;;;10.68;62.96;101223.06;5034780;28;20045;-82
2021/11/15 06:14:02;;;;;;;19.90;13.18;;;;;;;10.66;62.90;101222.53;5027067;28;20057;-82
2021/11/15 06:16:31;;;;;;;20.92;14.35;;;;;;;10.60;63.67;101215.34;5027300;28;20053;-82
2021/11/15 06:18:58;;;;;;;22.73;15.33;;;;;;;10.62;63.40;101215.06;5034504;28;20396;-82
2021/11/15 06:21:26;;;;;;;23.67;14.77;;;;;;;10.65;63.69;101214.47;5034883;28;20037;-82
2021/11/15 06:23:54;;;;;;;24.83;15.43;;;;;;;10.64;63.76;101212.81;5035221;28;20410;-82
2021/11/15 06:26:21;;;;;;;22.88;14.55;;;;;;;10.61;63.79;101217.03;5034206;28;20053;-82
2021/11/15 06:28:49;;;;;;;22.75;14.57;;;;;;;10.63;63.85;101220.34;5034288;28;20060;-82
2021/11/15 06:31:19;;;;;;;23.27;15.25;;;;;;;10.59;64.17;101224.03;5032304;28;20060;-82
2021/11/15 06:33:49;;;;;;;24.23;14.20;;;;;;;10.62;63.73;101229.00;5035577;28;20068;-82
2021/11/15 06:36:17;;;;;;;24.02;14.77;;;;;;;10.65;63.77;101234.00;5034087;28;20060;-82
2021/11/15 06:38:44;;;;;;;24.23;14.75;;;;;;;10.65;63.80;101222.84;5033703;28;20053;-82
2021/11/15 06:41:12;;;;;;;25.20;15.05;;;;;;;10.64;63.96;101226.75;5033811;28;20057;-82
2021/11/15 06:43:40;;;;;;;25.58;15.40;;;;;;;10.53;63.68;101237.16;5036770;28;20064;-82
2021/11/15 06:46:07;;;;;;;27.23;17.23;;;;;;;10.50;64.13;101238.59;5033903;28;20050;-82
2021/11/15 06:48:41;;;;;;;24.80;14.63;;;;;;;10.51;63.85;101228.28;5033102;28;20053;-82
2021/11/15 06:51:09;;;;;;;23.20;14.98;;;;;;;10.56;63.84;101243.00;5033679;28;20164;-82
2021/11/15 06:53:37;;;;;;;24.02;14.90;;;;;;;10.54;63.67;101239.66;5033259;28;20049;-82
2021/11/15 06:56:06;;;;;;;22.45;14.13;;;;;;;10.44;64.34;101242.56;5036734;28;20056;-82
2021/11/15 06:58:33;;;;;;;26.70;16.13;;;;;;;10.48;64.10;101254.78;5033801;28;20053;-82
2021/11/15 07:01:02;;;;;;;22.90;14.55;;;;;;;10.42;64.24;101249.56;5017255;28;20058;-82
2021/11/15 07:03:29;;;;;;;23.08;13.85;;;;;;;10.44;64.26;101245.34;5025452;28;20060;-82
2021/11/15 07:05:58;;;;;;;23.17;13.80;;;;;;;10.44;64.39;101245.34;5028339;28;20144;-82
2021/11/15 07:08:26;;;;;;;26.08;15.65;;;;;;;10.45;64.26;101249.78;5042604;28;20763;-82
2021/11/15 07:10:53;;;;;;;25.30;14.85;;;;;;;10.50;64.62;101252.53;5035616;28;20056;-82
2021/11/15 07:13:21;;;;;;;23.95;14.43;;;;;;;10.10;65.25;101249.00;5038691;28;20068;-76
2021/11/15 07:15:49;;;;;;;22.20;14.35;;;;;;;10.22;66.03;101259.72;5042673;28;20067;-76
2021/11/15 07:18:18;;;;;;;22.65;14.00;;;;;;;10.42;65.06;101252.34;5039608;28;20072;-81
2021/11/15 07:20:46;;;;;;;22.00;14.30;;;;;;;10.49;64.02;101261.16;5045746;28;20064;-81
2021/11/15 07:23:16;;;;;;;21.43;13.10;;;;;;;10.55;63.92;101260.00;5043987;28;20410;-81
2021/11/15 07:25:43;;;;;;;20.90;13.10;;;;;;;10.59;63.46;101263.03;5020725;28;20056;-80
2021/11/15 07:28:11;;;;;;;21.90;13.10;;;;;;;10.60;63.39;101250.75;5032155;28;20049;-81
2021/11/15 07:30:38;;;;;;;19.85;12.68;;;;;;;10.59;63.46;101263.03;5034191;28;20064;-80
2021/11/15 07:33:06;;;;;;;19.65;12.30;;;;;;;10.61;63.17;101260.78;5032986;28;20049;-81
2021/11/15 07:35:34;;;;;;;19.45;12.10;;;;;;;10.63;63.18;101261.31;5034124;28;20065;-80
2021/11/15 07:38:02;;;;;;;18.13;11.38;;;;;;;10.60;62.94;101271.06;5033934;28;20049;-80
2021/11/15 07:40:31;;;;;;;16.67;11.32;;;;;;;10.62;62.51;101262.41;5034421;28;20049;-81
2021/11/15 07:42:58;;;;;;;17.20;11.00;;;;;;;10.63;62.90;101275.25;5034580;28;20056;-81
2021/11/15 07:45:26;;;;;;;17.08;11.27;;;;;;;10.52;62.56;101263.34;5034330;28;20053;-80
2021/11/15 07:47:53;;;;;;;15.50;9.68;;;;;;;10.42;63.08;101269.88;5033230;28;20045;-81
2021/11/15 07:50:21;;;;;;;14.75;10.18;;;;;;;10.48;62.49;101271.47;5033439;28;20060;-80
2021/11/15 07:52:48;;;;;;;17.30;11.45;;;;;;;10.36;62.62;101271.03;5014091;28;20056;-80
2021/11/15 07:55:16;;;;;;;14.82;10.73;;;;;;;10.40;62.65;101277.69;5028387;28;20046;-80
2021/11/15 07:57:46;;;;;;;15.90;11.25;;;;;;;10.21;62.86;101258.06;5033190;28;20478;-80
2021/11/15 08:00:16;;;;;;;17.27;11.52;;;;;;;10.22;62.86;101270.03;5031823;28;20049;-80
2021/11/15 08:02:43;;;;;;;;;;;;;;;10.15;63.06;101278.72;5033739;28;20046;-80
2021/11/15 08:05:13;;;;;;;17.65;11.02;;;;;;;9.84;64.25;101281.75;5032306;28;19921;-74
2021/11/15 08:07:41;;;;;;;17.92;11.20;;;;;;;9.55;65.16;101276.97;5031453;28;20722;-75
2021/11/15 08:10:11;;;;;;;17.48;11.50;;;;;;;9.87;64.71;101285.91;5021887;28;20502;-80
2021/11/15 08:12:42;;;;;;;16.33;10.82;;;;;;;10.12;63.56;101282.06;5031187;28;20491;-84
2021/11/15 08:15:14;;;;;;;16.23;10.98;;;;;;;10.23;62.86;101278.09;5032445;28;20045;-82
2021/11/15 08:17:43;;;;;;;16.55;10.32;;;;;;;10.23;62.81;101280.88;5035126;28;20053;-83
2021/11/15 08:20:14;;;;;;;15.13;10.38;;;;;;;10.35;62.31;101280.50;5030189;28;20061;-84
2021/11/15 08:22:42;;;;;;;16.15;10.15;;;;;;;10.32;62.60;101272.75;5035317;28;20053;-80
2021/11/15 08:25:49;;;;;;;13.88;10.07;;;;;;;10.33;62.48;101274.41;5032966;28;20061;-79
2021/11/15 08:28:17;;;;;;;13.75;9.55;;;;;;;10.32;62.49;101276.38;5024007;28;20057;-81
2021/11/15 08:30:51;;;;;;;14.77;10.07;;;;;;;10.12;62.35;101259.81;5024961;28;20055;-80
2021/11/15 08:33:19;;;;;;;14.15;9.93;;;;;;;10.10;62.24;101279.59;5035215;28;20053;-81
2021/11/15 08:35:48;;;;;;;13.70;9.52;;;;;;;10.06;62.11;101274.91;5033297;28;20046;-80
2021/11/15 08:38:42;;;;;;;11.88;8.63;;;;;;;10.10;62.06;101274.03;5031070;28;20065;-80
2021/11/15 08:41:10;;;;;;;11.93;8.55;;;;;;;10.08;61.83;101276.28;5031441;28;20068;-80
2021/11/15 08:43:38;;;;;;;12.68;8.55;;;;;;;10.09;61.73;101274.31;5035099;28;20375;-79
2021/11/15 08:46:08;;;;;;;12.38;8.18;;;;;;;10.08;61.60;101273.50;5032901;28;20061;-80
2021/11/15 08:48:35;;;;;;;12.75;9.23;;;;;;;10.14;61.92;101277.03;5031067;28;20057;-81
2021/11/15 08:51:05;;;;;;;13.05;9.48;;;;;;;10.08;61.77;101276.28;5029704;28;20057;-81
2021/11/15 08:53:33;;;;;;;13.35;9.13;;;;;;;9.97;61.87;101271.91;5037897;28;20058;-81
2021/11/15 08:56:00;;;;;;;12.50;8.85;;;;;;;10.04;61.98;101269.63;5030663;28;20061;-82
2021/11/15 08:58:28;;;;;;;12.25;8.63;;;;;;;9.96;61.89;101273.03;5033389;28;20045;-81
2021/11/15 09:00:58;;;;;;;13.82;9.57;;;;;;;9.86;62.15;101271.16;5027157;28;20516;-81
2021/11/15 09:03:27;;;;;;;14.02;8.98;;;;;;;9.89;62.57;101273.38;5035829;28;20057;-82
2021/11/15 09:05:54;;;;;;;12.00;8.38;;;;;;;9.91;61.91;101271.13;5035237;28;20049;-84
2021/11/15 09:08:23;;;;;;;12.30;8.40;;;;;;;9.93;62.11;101266.09;5035741;28;20536;-82
2021/11/15 09:10:50;;;;;;;11.60;7.63;;;;;;;9.87;61.85;101272.84;5034173;28;20050;-81
2021/11/15 09:13:18;;;;;;;13.13;8.80;;;;;;;9.92;61.60;101271.97;5033422;28;20053;-81
2021/11/15 09:15:48;;;;;;;11.50;7.78;;;;;;;9.80;62.02;101269.53;5034732;28;20538;-83
2021/11/15 09:18:16;;;;;;;10.55;7.80;;;;;;;9.80;62.09;101255.63;5035579;28;20383;-84
2021/11/15 09:20:44;;;;;;;11.88;7.55;;;;;;;9.91;61.78;101259.16;5034184;28;20049;-84
2021/11/15 09:23:12;;;;;;;12.43;7.40;;;;;;;9.96;61.36;101257.16;5034289;28;20048;-81
2021/11/15 09:25:41;;;;;;;9.50;6.75;;;;;;;9.98;61.25;101256.88;5035036;28;20482;-82
2021/11/15 09:28:09;;;;;;;11.63;7.38;;;;;;;10.05;60.69;101254.59;5034753;28;20049;-82
2021/11/15 09:30:37;;;;;;;11.02;7.10;;;;;;;10.09;60.80;101255.66;5036383;28;20057;-85
2021/11/15 09:33:05;;;;;;;10.68;7.57;;;;;;;10.22;60.49;101261.69;5035935;28;20443;-83
2021/11/15 09:35:33;;;;;;;9.32;6.70;;;;;;;10.22;60.61;101258.91;5034974;28;20060;-84
2021/11/15 09:38:01;;;;;;;12.13;8.00;;;;;;;10.35;60.41;101258.22;5035331;28;20056;-84
2021/11/15 09:40:32;;;;;;;10.82;7.20;;;;;;;10.41;60.16;101262.63;5034340;28;20057;-81
2021/11/15 09:42:59;;;;;;;10.88;7.43;;;;;;;10.44;60.30;101270.41;5035782;28;20533;-82
2021/11/15 09:45:27;;;;;;;12.00;7.95;;;;;;;10.53;59.66;101265.84;5032824;28;20486;-85
2021/11/15 09:47:57;;;;;;;12.93;8.45;;;;;;;10.52;60.12;101280.91;5035067;28;20410;-82
2021/11/15 09:50:25;;;;;;;12.98;8.88;;;;;;;10.39;60.50;101275.19;5035679;28;20402;-83
2021/11/15 09:52:54;;;;;;;11.13;7.72;;;;;;;10.53;59.61;101274.22;5034070;28;20053;-89
2021/11/15 09:55:23;;;;;;;12.38;8.40;;;;;;;10.54;59.63;101270.31;5035312;28;20064;-82
2021/11/15 09:57:51;;;;;;;12.68;9.18;;;;;;;10.62;59.64;101265.22;5033302;28;20053;-85
2021/11/15 10:00:22;;;;;;;9.98;7.70;;;;;;;10.56;59.75;101268.06;5031472;28;20070;-82
2021/11/15 10:02:51;;;;;;;9.63;7.43;;;;;;;10.61;59.44;101256.03;5031215;28;20068;-80
2021/11/15 10:05:19;;;;;;;11.52;7.47;;;;;;;10.65;59.07;101259.06;5031161;28;20041;-81
2021/11/15 10:07:49;;;;;;;10.30;7.22;;;;;;;10.67;59.01;101245.66;5030588;28;20053;-79
2021/11/15 10:10:29;;;;;;;;;;;;;;;10.52;58.84;101250.28;5031693;28;20486;-79
2021/11/15 10:13:18;;;;;;;12.52;9.10;;;;;;;10.45;59.08;101246.16;5031386;28;19921;-80
2021/11/15 10:15:52;;;;;;;11.68;7.15;;;;;;;10.56;58.94;101259.69;5025505;28;20487;-79
2021/11/15 10:18:31;;;;;;;9.52;7.05;;;;;;;10.60;58.87;101253.53;5023425;28;20180;-79
2021/11/15 10:21:01;;;;;;;11.20;7.40;;;;;;;10.62;58.51;101251.28;5027674;28;20490;-79
2021/11/15 10:23:32;;;;;;;12.23;9.23;;;;;;;10.67;58.70;101254.84;5028482;28;20065;-80
2021/11/15 10:26:07;;;;;;;12.48;8.00;;;;;;;10.73;59.03;101245.31;5031415;28;20077;-81
2021/11/15 10:28:35;;;;;;;12.25;8.85;;;;;;;10.72;58.46;101246.41;5036496;28;20160;-81
2021/11/15 10:31:02;;;;;;;11.52;6.80;;;;;;;10.76;58.32;101236.34;5030732;28;20068;-80
2021/11/15 10:33:38;;;;;;;10.80;7.30;;;;;;;10.89;58.25;101240.34;5031821;28;20057;-80
2021/11/15 10:36:06;;;;;;;12.57;8.90;;;;;;;10.93;57.99;101240.59;5031498;28;20049;-80
2021/11/15 10:38:41;;;;;;;11.18;7.30;;;;;;;10.95;57.51;101235.56;5031505;28;20509;-81
2021/11/15 10:41:16;;;;;;;10.80;7.38;;;;;;;11.03;57.11;101232.13;5029014;28;20053;-82
2021/11/15 10:43:44;;;;;;;16.10;7.75;;;;;;;11.06;57.12;101228.72;5025089;28;20049;-81
2021/11/15 10:46:29;;;;;;;14.93;10.27;;;;;;;11.03;56.98;101236.88;5025419;28;20425;-81
2021/11/15 10:48:58;;;;;;;17.08;10.73;;;;;;;11.10;57.18;101234.53;5030804;28;20049;-82
2021/11/15 10:51:48;;;;;;;12.55;7.68;;;;;;;11.11;57.26;101236.19;5032099;28;20057;-82
2021/11/15 10:54:47;;;;;;;10.85;7.72;;;;;;;11.09;57.07;101241.25;5030068;28;20045;-82
2021/11/15 10:57:32;;;;;;;11.65;8.35;;;;;;;11.12;56.56;101249.00;5026167;28;20057;-78
2021/11/15 11:00:32;;;;;;;12.02;8.52;;;;;;;11.09;56.79;101246.81;5027537;28;20076;-82
2021/11/15 11:03:08;;;;;;;11.52;8.38;;;;;;;11.15;56.47;101248.41;5025442;28;20057;-79
2021/11/15 11:05:37;;;;;;;11.80;7.70;;;;;;;10.84;56.99;101240.44;5029827;28;20402;-81
2021/11/15 11:08:14;;;;;;;12.98;8.23;;;;;;;11.04;56.40;101241.28;5032801;28;20049;-81
2021/11/15 11:11:05;;;;;;;16.48;8.25;;;;;;;10.98;56.87;101246.09;5032668;28;20049;-79
2021/11/15 11:13:47;;;;;;;12.38;8.07;;;;;;;11.04;56.49;101238.50;5033192;28;20634;-79
2021/11/15 11:16:16;;;;;;;12.15;8.15;;;;;;;11.01;56.62;101239.13;5034862;28;20064;-79
2021/11/15 11:18:50;;;;;;;11.07;7.95;;;;;;;11.03;56.44;101234.06;5037891;28;20061;-79
2021/11/15 11:22:09;;;;;;;11.45;7.95;;;;;;;11.05;56.45;101242.97;5037073;28;20053;-81
2021/11/15 11:24:46;;;;;;;11.20;7.63;;;;;;;11.09;56.27;101232.88;5033091;28;20060;-82
2021/11/15 11:27:18;;;;;;;14.40;9.05;;;;;;;11.11;56.59;101230.63;5036658;28;20058;-81
2021/11/15 11:29:49;;;;;;;14.32;9.48;;;;;;;11.11;56.44;101227.84;5034693;28;20064;-81
2021/11/15 11:32:37;;;;;;;14.70;9.02;;;;;;;10.89;56.91;101218.06;5033000;28;20052;-84
2021/11/15 11:38:06;;;;;;;13.30;8.73;;;;;;;10.95;57.07;101222.44;5033032;28;20072;-83
2021/11/15 11:40:34;;;;;;;13.05;9.05;;;;;;;10.85;57.44;101214.22;5032742;28;20414;-83
2021/11/15 11:43:01;;;;;;;13.57;9.73;;;;;;;10.98;57.29;101209.84;5031830;28;20046;-83
2021/11/15 11:45:30;;;;;;;12.43;9.30;;;;;;;11.07;56.70;101213.66;5034279;28;20049;-83
2021/11/15 11:47:58;;;;;;;16.15;9.57;;;;;;;11.08;56.74;101197.75;5030203;28;20053;-83
2021/11/15 11:50:26;;;;;;;13.10;9.10;;;;;;;11.06;57.32;101208.38;5037313;28;20058;-83
2021/11/15 11:53:04;;;;;;;12.55;8.85;;;;;;;11.11;56.73;101199.97;5036976;28;20065;-83
2021/11/15 11:55:35;;;;;;;13.95;9.82;;;;;;;11.13;56.68;101194.91;5030764;28;20414;-83
2021/11/15 11:58:25;;;;;;;13.70;9.20;;;;;;;11.11;56.60;101194.38;5036333;28;20060;-84
2021/11/15 12:00:54;;;;;;;;;;;;;;;11.03;56.83;101195.06;5035691;28;20053;-84
2021/11/15 12:03:25;;;;;;;16.00;9.75;;;;;;;11.07;56.79;101187.75;5029403;28;19924;-82
2021/11/15 12:05:53;;;;;;;12.98;8.93;;;;;;;11.11;57.39;101188.81;5022174;28;20066;-85
2021/11/15 12:08:52;;;;;;;13.93;9.45;;;;;;;11.01;57.15;101192.56;5028612;28;20510;-85
2021/11/15 12:11:23;;;;;;;14.97;9.43;;;;;;;11.10;56.97;101184.34;5028120;28;20053;-86
2021/11/15 12:13:52;;;;;;;14.90;9.57;;;;;;;11.08;56.90;101189.38;5030960;28;20480;-87
2021/11/15 12:54:06;;;;;;;;;;;;;;;;;;;;;
2021/11/15 13:14:23;;;;;;;22.27;14.25;;;;;;;11.04;57.64;101152.91;4978256;28;20064;-82
2021/11/15 14:15:48;;;;;;;17.42;10.98;;;;;;;10.78;58.40;101138.50;5001154;28;20062;-84
2021/11/15 14:18:18;;;;;;;14.80;9.15;;;;;;;10.77;58.37;101131.28;5031960;28;20056;-83
2021/11/15 14:20:45;;;;;;;;;;;;;;;10.78;58.36;101141.31;5055354;28;20053;-83
2021/11/15 14:23:13;;;;;;;15.05;9.20;;;;;;;10.64;58.66;101143.16;5056839;28;19924;-83
2021/11/15 14:25:40;;;;;;;15.75;9.80;;;;;;;10.69;58.63;101134.75;5054619;28;20053;-83
2021/11/15 14:28:11;;;;;;;16.55;9.73;;;;;;;10.69;58.73;101148.69;5055333;28;20057;-83
2021/11/15 14:30:39;;;;;;;16.38;10.05;;;;;;;10.76;58.33;101146.34;5056562;28;20138;-85
2021/11/15 14:33:07;;;;;;;12.50;8.90;;;;;;;10.60;58.19;101153.25;5054242;28;20497;-83
2021/11/15 14:35:37;;;;;;;13.55;8.55;;;;;;;10.67;58.17;101137.00;5057699;28;20504;-83
2021/11/15 14:38:05;;;;;;;11.07;7.53;;;;;;;10.67;57.98;101151.75;5053899;28;20071;-85
2021/11/15 14:40:33;;;;;;;12.00;7.85;;;;;;;10.68;57.43;101149.78;5055319;28;20116;-85
2021/11/15 14:43:00;;;;;;;12.32;8.05;;;;;;;10.58;57.52;101159.09;5052541;28;20569;-84
2021/11/15 14:45:28;;;;;;;11.05;6.90;;;;;;;10.57;57.10;101158.28;5054119;28;20068;-84
2021/11/15 14:47:55;;;;;;;10.50;7.55;;;;;;;10.40;57.40;101148.75;5054092;28;20417;-82
2021/11/15 14:50:23;;;;;;;17.48;11.80;;;;;;;10.23;58.35;101143.63;5051487;28;20072;-85
2021/11/15 14:52:53;;;;;;;13.65;9.30;;;;;;;10.24;58.00;101139.72;5051191;28;20056;-87
2021/11/15 14:55:21;;;;;;;15.25;10.00;;;;;;;10.29;58.45;101143.31;5053908;28;20052;-87
2021/11/15 14:57:49;;;;;;;17.05;10.27;;;;;;;10.30;58.18;101146.91;5048342;28;20053;-90
2021/11/15 15:00:19;;;;;;;13.88;9.48;;;;;;;10.35;58.28;101144.06;5050758;28;20044;-82
2021/11/15 15:02:46;;;;;;;14.25;8.95;;;;;;;10.36;58.44;101143.78;5051203;28;20060;-83
2021/11/15 15:05:14;;;;;;;15.55;9.95;;;;;;;10.38;58.18;101140.69;5054367;28;20072;-82
2021/11/15 15:07:43;;;;;;;14.70;10.13;;;;;;;10.31;58.28;101134.63;5049387;28;20091;-86
2021/11/15 15:10:14;;;;;;;14.63;9.07;;;;;;;10.15;59.06;101137.56;5053090;28;20059;-85
2021/11/15 15:12:42;;;;;;;12.70;8.88;;;;;;;10.22;58.97;101141.97;5051966;28;20056;-85
2021/11/15 15:15:15;;;;;;;14.43;9.57;;;;;;;10.31;58.74;101148.56;5049909;28;20079;-85
2021/11/15 15:17:43;;;;;;;15.00;9.32;;;;;;;10.35;58.55;101149.63;5053035;28;20053;-85
2021/11/15 15:20:14;;;;;;;19.05;10.80;;;;;;;10.38;58.85;101151.84;5051526;28;20056;-84
2021/11/15 15:22:42;;;;;;;16.40;10.75;;;;;;;10.37;59.35;101158.50;5050440;28;20060;-85
2021/11/15 15:25:09;;;;;;;17.10;11.02;;;;;;;10.35;59.44;101156.06;5050607;28;20057;-81
2021/11/15 15:27:38;;;;;;;18.27;11.35;;;;;;;10.40;59.08;101154.34;5051256;28;20068;-83
2021/11/15 15:30:07;;;;;;;17.80;11.05;;;;;;;10.34;59.01;101150.78;5051229;28;20052;-84
2021/11/15 15:32:35;;;;;;;14.00;9.43;;;;;;;10.38;58.55;101140.69;5051362;28;20056;-84
2021/11/15 15:35:03;;;;;;;20.92;10.02;;;;;;;10.40;58.45;101143.19;5052550;28;20057;-84
2021/11/15 15:37:31;;;;;;;14.13;9.43;;;;;;;10.42;58.30;101143.72;5047602;28;20486;-84
2021/11/15 15:39:58;;;;;;;14.35;8.60;;;;;;;10.33;58.01;101146.31;5052180;28;20053;-83
2021/11/15 15:42:26;;;;;;;11.80;8.60;;;;;;;10.33;57.98;101133.25;5049504;28;20052;-83
2021/11/15 15:44:56;;;;;;;15.38;9.45;;;;;;;10.35;57.72;101130.13;5050572;28;20493;-82
2021/11/15 15:47:24;;;;;;;14.45;8.70;;;;;;;10.35;57.61;101127.34;5048628;28;20104;-81
2021/11/15 15:49:55;;;;;;;12.18;8.70;;;;;;;10.32;57.46;101125.16;5051799;28;20064;-87
2021/11/15 15:52:25;;;;;;;12.85;9.00;;;;;;;10.24;58.09;101120.22;5047832;28;20068;-85
2021/11/15 15:54:53;;;;;;;14.13;9.23;;;;;;;10.24;58.22;101117.44;5051092;28;20048;-89
2021/11/15 15:57:24;;;;;;;14.95;9.23;;;;;;;10.21;58.34;101113.31;5056179;28;20403;-88
2021/11/15 15:59:51;;;;;;;14.68;9.52;;;;;;;10.28;58.11;101118.50;5051547;28;20049;-87
2021/11/15 16:02:22;;;;;;;12.38;9.38;;;;;;;10.23;58.08;101115.78;5054685;28;20057;-84
2021/11/15 16:05:13;;;;;;;14.57;9.00;;;;;;;10.12;58.07;101121.47;5053554;28;20390;-77
2021/11/15 16:07:45;;;;;;;12.18;7.80;;;;;;;9.67;59.81;101119.97;5049245;28;20065;-77
2021/11/15 16:13:12;;;;;;;12.02;7.85;;;;;;;9.62;60.12;101128.38;4999736;28;20418;-77
2021/11/15 16:15:57;;;;;;;13.15;8.77;;;;;;;9.82;63.85;101124.56;5013070;28;20064;-77
2021/11/15 16:18:25;;;;;;;10.73;8.48;;;;;;;9.52;60.28;101132.06;5012962;28;20069;-77
2021/11/15 16:20:55;;;;;;;13.13;9.17;;;;;;;9.67;61.48;101136.69;5013250;28;20058;-77
2021/11/15 16:23:25;;;;;;;12.98;9.10;;;;;;;9.92;60.06;101132.81;5012570;28;20074;-78
2021/11/15 16:25:53;;;;;;;14.82;9.95;;;;;;;10.12;59.62;101135.41;5013690;28;20062;-78
2021/11/15 16:28:20;;;;;;;12.75;8.70;;;;;;;10.25;58.96;101138.59;5013571;28;20054;-78
2021/11/15 16:30:48;;;;;;;15.85;10.48;;;;;;;10.32;59.88;101127.97;5013221;28;20509;-77
2021/11/15 16:33:16;;;;;;;13.43;9.68;;;;;;;10.23;59.26;101132.50;5013299;28;20059;-77
2021/11/15 16:35:47;;;;;;;12.70;9.35;;;;;;;10.24;59.85;101125.78;5013064;28;20529;-77
2021/11/15 16:38:15;;;;;;;16.48;11.35;;;;;;;10.03;59.72;101125.19;5015916;28;20065;-78
2021/11/15 16:40:42;;;;;;;13.43;10.70;;;;;;;9.98;59.77;101126.06;5018508;28;20541;-79
2021/11/15 16:43:12;;;;;;;17.05;11.90;;;;;;;9.86;59.72;101128.44;5019063;28;20061;-78
2021/11/15 16:45:41;;;;;;;15.82;11.63;;;;;;;9.63;60.30;101122.50;5034529;28;20057;-78
2021/11/15 16:48:16;;;;;;;16.40;12.00;;;;;;;9.92;60.20;101127.25;5037540;28;20061;-85
2021/11/15 16:50:47;;;;;;;15.30;11.25;;;;;;;9.99;59.26;101127.72;5038408;28;20057;-85
2021/11/15 16:53:15;;;;;;;16.58;11.70;;;;;;;10.09;59.16;101127.63;5038294;28;20061;-85
2021/11/15 16:55:43;;;;;;;13.73;11.18;;;;;;;9.89;59.29;101133.38;5040783;28;20060;-86